sensor_id;sensor_type;location;lat;lon;timestamp;pressure;altitude;pressure_sealevel;temperature;humidity
68226;BME280;55045;49.410;11.030;2022-08-27T00:02:55;58865.03;;;-143.47;100.00
68226;BME280;55045;49.410;11.030;2022-08-27T00:06:01;58865.03;;;-143.47;100.00
68226;BME280;55045;49.410;11.030;2022-08-27T00:09:05;58865.03;;;-143.47;100.00
68226;BME280;55045;49.410;11.030;2022-08-27T00:12:09;58865.03;;;-143.47;100.00
68226;BME280;55045;49.410;11.030;2022-08-27T00:15:14;58865.03;;;-143.47;100.00
68226;BME280;55045;49.410;11.030;2022-08-27T00:18:19;58865.03;;;-143.47;100.00
68226;BME280;55045;49.410;11.030;2022-08-27T00:21:25;58865.03;;;-143.47;100.00
68226;BME280;55045;49.410;11.030;2022-08-27T00:24:28;58865.03;;;-143.47;100.00
68226;BME280;55045;49.410;11.030;2022-08-27T00:27:32;58865.03;;;-143.47;100.00
68226;BME280;55045;49.410;11.030;2022-08-27T00:30:35;58865.03;;;-143.47;100.00
68226;BME280;55045;49.410;11.030;2022-08-27T00:33:40;58865.03;;;-143.47;100.00
68226;BME280;55045;49.410;11.030;2022-08-27T00:36:45;58865.03;;;-143.47;100.00
68226;BME280;55045;49.410;11.030;2022-08-27T00:39:49;58865.03;;;-143.47;100.00
68226;BME280;55045;49.410;11.030;2022-08-27T00:42:52;58865.03;;;-143.47;100.00
68226;BME280;55045;49.410;11.030;2022-08-27T00:46:02;58865.03;;;-143.47;100.00
68226;BME280;55045;49.410;11.030;2022-08-27T00:49:10;58865.03;;;-143.47;100.00
68226;BME280;55045;49.410;11.030;2022-08-27T00:52:21;58865.03;;;-143.47;100.00
68226;BME280;55045;49.410;11.030;2022-08-27T00:55:28;58865.03;;;-143.47;100.00
68226;BME280;55045;49.410;11.030;2022-08-27T00:58:38;58865.03;;;-143.47;100.00
68226;BME280;55045;49.410;11.030;2022-08-27T01:01:44;58865.03;;;-143.47;100.00
68226;BME280;55045;49.410;11.030;2022-08-27T01:05:06;58865.03;;;-143.47;100.00
68226;BME280;55045;49.410;11.030;2022-08-27T01:08:13;58865.03;;;-143.47;100.00
68226;BME280;55045;49.410;11.030;2022-08-27T01:11:18;58865.03;;;-143.47;100.00
68226;BME280;55045;49.410;11.030;2022-08-27T01:14:22;58865.03;;;-143.47;100.00
68226;BME280;55045;49.410;11.030;2022-08-27T01:17:26;58865.03;;;-143.47;100.00
68226;BME280;55045;49.410;11.030;2022-08-27T01:20:39;58865.03;;;-143.47;100.00
68226;BME280;55045;49.410;11.030;2022-08-27T01:23:51;58865.03;;;-143.47;100.00
68226;BME280;55045;49.410;11.030;2022-08-27T01:26:59;58865.03;;;-143.47;100.00
68226;BME280;55045;49.410;11.030;2022-08-27T01:30:06;58865.03;;;-143.47;100.00
68226;BME280;55045;49.410;11.030;2022-08-27T01:33:13;58865.03;;;-143.47;100.00
68226;BME280;55045;49.410;11.030;2022-08-27T01:36:34;97902.38;;;17.27;100.00
68226;BME280;55045;49.410;11.030;2022-08-27T01:39:39;97914.75;;;17.37;100.00
68226;BME280;55045;49.410;11.030;2022-08-27T01:42:44;97915.22;;;17.42;100.00
68226;BME280;55045;49.410;11.030;2022-08-27T01:45:50;97910.22;;;17.39;100.00
68226;BME280;55045;49.410;11.030;2022-08-27T01:48:54;97898.81;;;17.28;100.00
68226;BME280;55045;49.410;11.030;2022-08-27T01:51:59;97913.78;;;17.49;100.00
68226;BME280;55045;49.410;11.030;2022-08-27T01:55:03;97909.03;;;17.43;100.00
68226;BME280;55045;49.410;11.030;2022-08-27T01:58:07;97911.06;;;17.39;100.00
68226;BME280;55045;49.410;11.030;2022-08-27T02:01:15;97895.34;;;17.39;100.00
68226;BME280;55045;49.410;11.030;2022-08-27T02:04:19;97883.31;;;17.25;100.00
68226;BME280;55045;49.410;11.030;2022-08-27T02:07:25;97904.16;;;17.38;100.00
68226;BME280;55045;49.410;11.030;2022-08-27T02:10:30;97902.59;;;17.36;100.00
68226;BME280;55045;49.410;11.030;2022-08-27T02:13:34;97904.63;;;17.32;100.00
68226;BME280;55045;49.410;11.030;2022-08-27T02:16:37;97894.41;;;17.29;100.00
68226;BME280;55045;49.410;11.030;2022-08-27T02:19:53;97902.38;;;17.27;100.00
68226;BME280;55045;49.410;11.030;2022-08-27T02:22:59;97895.94;;;17.20;100.00
68226;BME280;55045;49.410;11.030;2022-08-27T02:26:02;97900.13;;;17.23;100.00
68226;BME280;55045;49.410;11.030;2022-08-27T02:29:06;97896.47;;;17.80;100.00
68226;BME280;55045;49.410;11.030;2022-08-27T02:32:10;97893.19;;;17.88;100.00
68226;BME280;55045;49.410;11.030;2022-08-27T02:35:35;97870.63;;;17.53;100.00
68226;BME280;55045;49.410;11.030;2022-08-27T02:38:43;97878.50;;;17.96;100.00
68226;BME280;55045;49.410;11.030;2022-08-27T02:41:46;97863.56;;;17.76;100.00
68226;BME280;55045;49.410;11.030;2022-08-27T02:44:50;97867.31;;;17.51;100.00
68226;BME280;55045;49.410;11.030;2022-08-27T02:47:55;97856.00;;;17.39;100.00
68226;BME280;55045;49.410;11.030;2022-08-27T02:50:59;97798.81;;;16.90;100.00
68226;BME280;55045;49.410;11.030;2022-08-27T02:54:03;97863.41;;;17.23;100.00
68226;BME280;55045;49.410;11.030;2022-08-27T02:57:10;97862.72;;;17.21;100.00
68226;BME280;55045;49.410;11.030;2022-08-27T03:00:16;97862.13;;;17.28;100.00
68226;BME280;55045;49.410;11.030;2022-08-27T03:03:20;97854.97;;;17.19;100.00
68226;BME280;55045;49.410;11.030;2022-08-27T03:06:23;97858.69;;;17.17;100.00
68226;BME280;55045;49.410;11.030;2022-08-27T03:09:27;97848.53;;;17.12;100.00
68226;BME280;55045;49.410;11.030;2022-08-27T03:12:31;97848.28;;;17.15;100.00
68226;BME280;55045;49.410;11.030;2022-08-27T03:15:35;97853.78;;;17.23;100.00
68226;BME280;55045;49.410;11.030;2022-08-27T03:18:38;97853.66;;;17.14;100.00
68226;BME280;55045;49.410;11.030;2022-08-27T03:21:42;97850.78;;;17.39;100.00
68226;BME280;55045;49.410;11.030;2022-08-27T03:24:57;97862.91;;;17.40;100.00
68226;BME280;55045;49.410;11.030;2022-08-27T03:28:00;97865.78;;;17.37;100.00
68226;BME280;55045;49.410;11.030;2022-08-27T03:34:24;97861.06;;;17.09;100.00
68226;BME280;55045;49.410;11.030;2022-08-27T03:37:27;97866.53;;;17.06;100.00
68226;BME280;55045;49.410;11.030;2022-08-27T03:40:31;97873.81;;;17.02;100.00
68226;BME280;55045;49.410;11.030;2022-08-27T03:43:34;97866.16;;;17.21;100.00
68226;BME280;55045;49.410;11.030;2022-08-27T03:46:37;97865.81;;;17.15;100.00
68226;BME280;55045;49.410;11.030;2022-08-27T03:49:43;97857.72;;;17.18;100.00
68226;BME280;55045;49.410;11.030;2022-08-27T03:52:46;97848.81;;;16.98;100.00
68226;BME280;55045;49.410;11.030;2022-08-27T03:55:50;97853.56;;;17.04;100.00
68226;BME280;55045;49.410;11.030;2022-08-27T03:58:54;97845.34;;;17.09;100.00
68226;BME280;55045;49.410;11.030;2022-08-27T04:01:57;97851.16;;;17.12;100.00
68226;BME280;55045;49.410;11.030;2022-08-27T04:05:03;97838.22;;;16.99;100.00
68226;BME280;55045;49.410;11.030;2022-08-27T04:08:06;97834.97;;;17.18;100.00
68226;BME280;55045;49.410;11.030;2022-08-27T04:11:10;97830.78;;;17.16;100.00
68226;BME280;55045;49.410;11.030;2022-08-27T04:14:13;97833.09;;;16.98;100.00
68226;BME280;55045;49.410;11.030;2022-08-27T04:17:28;97825.34;;;16.96;100.00
68226;BME280;55045;49.410;11.030;2022-08-27T04:20:32;97830.09;;;17.03;100.00
68226;BME280;55045;49.410;11.030;2022-08-27T04:23:37;97829.56;;;17.31;100.00
68226;BME280;55045;49.410;11.030;2022-08-27T04:26:41;97827.78;;;17.32;100.00
68226;BME280;55045;49.410;11.030;2022-08-27T04:29:47;97802.06;;;17.25;100.00
68226;BME280;55045;49.410;11.030;2022-08-27T04:32:52;97831.97;;;17.23;100.00
68226;BME280;55045;49.410;11.030;2022-08-27T04:36:01;97820.78;;;17.64;100.00
68226;BME280;55045;49.410;11.030;2022-08-27T04:39:04;97838.78;;;17.14;100.00
68226;BME280;55045;49.410;11.030;2022-08-27T04:42:08;97843.19;;;17.14;100.00
68226;BME280;55045;49.410;11.030;2022-08-27T04:45:11;97844.84;;;17.15;100.00
68226;BME280;55045;49.410;11.030;2022-08-27T04:48:16;97838.44;;;17.08;100.00
68226;BME280;55045;49.410;11.030;2022-08-27T04:51:22;97846.19;;;17.09;100.00
68226;BME280;55045;49.410;11.030;2022-08-27T04:54:25;97852.22;;;17.32;100.00
68226;BME280;55045;49.410;11.030;2022-08-27T04:57:34;97851.03;;;17.14;100.00
68226;BME280;55045;49.410;11.030;2022-08-27T05:00:42;97853.66;;;17.14;100.00
68226;BME280;55045;49.410;11.030;2022-08-27T05:03:46;97850.47;;;17.10;100.00
68226;BME280;55045;49.410;11.030;2022-08-27T05:06:51;97854.63;;;17.13;100.00
68226;BME280;55045;49.410;11.030;2022-08-27T05:09:55;97862.44;;;17.35;100.00
68226;BME280;55045;49.410;11.030;2022-08-27T05:12:58;97865.94;;;17.13;100.00
68226;BME280;55045;49.410;11.030;2022-08-27T05:16:04;97858.78;;;17.04;100.00
68226;BME280;55045;49.410;11.030;2022-08-27T05:19:10;97867.25;;;17.19;100.00
68226;BME280;55045;49.410;11.030;2022-08-27T05:22:17;97870.00;;;17.17;100.00
68226;BME280;55045;49.410;11.030;2022-08-27T05:25:20;97870.56;;;17.21;100.00
68226;BME280;55045;49.410;11.030;2022-08-27T05:28:24;97864.84;;;17.16;100.00
68226;BME280;55045;49.410;11.030;2022-08-27T05:31:29;97873.31;;;17.19;100.00
68226;BME280;55045;49.410;11.030;2022-08-27T05:34:32;97872.72;;;17.16;100.00
68226;BME280;55045;49.410;11.030;2022-08-27T05:37:38;97875.13;;;17.19;100.00
68226;BME280;55045;49.410;11.030;2022-08-27T05:40:41;97875.34;;;17.27;100.00
68226;BME280;55045;49.410;11.030;2022-08-27T05:43:46;97874.25;;;17.30;100.00
68226;BME280;55045;49.410;11.030;2022-08-27T05:46:53;97878.41;;;17.32;100.00
68226;BME280;55045;49.410;11.030;2022-08-27T05:49:56;97879.13;;;17.34;100.00
68226;BME280;55045;49.410;11.030;2022-08-27T05:53:01;97881.03;;;17.32;100.00
68226;BME280;55045;49.410;11.030;2022-08-27T05:56:10;97881.16;;;17.31;100.00
68226;BME280;55045;49.410;11.030;2022-08-27T05:59:14;97876.66;;;17.21;100.00
68226;BME280;55045;49.410;11.030;2022-08-27T06:02:35;97882.72;;;17.22;100.00
68226;BME280;55045;49.410;11.030;2022-08-27T06:05:40;97876.13;;;17.50;100.00
68226;BME280;55045;49.410;11.030;2022-08-27T06:08:45;97874.31;;;18.67;100.00
68226;BME280;55045;49.410;11.030;2022-08-27T06:11:48;97872.38;;;17.75;100.00
68226;BME280;55045;49.410;11.030;2022-08-27T06:14:52;97853.06;;;18.50;100.00
68226;BME280;55045;49.410;11.030;2022-08-27T06:17:56;97856.91;;;17.61;100.00
68226;BME280;55045;49.410;11.030;2022-08-27T06:20:59;97867.25;;;18.05;100.00
68226;BME280;55045;49.410;11.030;2022-08-27T06:24:04;97865.84;;;18.43;100.00
68226;BME280;55045;49.410;11.030;2022-08-27T06:27:10;97862.94;;;17.83;100.00
68226;BME280;55045;49.410;11.030;2022-08-27T06:30:14;97868.66;;;17.77;100.00
68226;BME280;55045;49.410;11.030;2022-08-27T06:33:18;97876.66;;;18.29;100.00
68226;BME280;55045;49.410;11.030;2022-08-27T06:36:23;97862.84;;;18.06;100.00
68226;BME280;55045;49.410;11.030;2022-08-27T06:39:29;97867.13;;;17.75;100.00
68226;BME280;55045;49.410;11.030;2022-08-27T06:42:33;97876.22;;;17.60;100.00
68226;BME280;55045;49.410;11.030;2022-08-27T06:45:38;97877.63;;;17.75;100.00
68226;BME280;55045;49.410;11.030;2022-08-27T06:48:43;97886.47;;;17.74;100.00
68226;BME280;55045;49.410;11.030;2022-08-27T06:51:47;97885.75;;;17.72;100.00
68226;BME280;55045;49.410;11.030;2022-08-27T06:54:52;97897.91;;;17.73;100.00
68226;BME280;55045;49.410;11.030;2022-08-27T06:57:55;97891.56;;;17.64;100.00
68226;BME280;55045;49.410;11.030;2022-08-27T07:00:59;97897.91;;;17.62;100.00
68226;BME280;55045;49.410;11.030;2022-08-27T07:04:04;97882.63;;;17.67;100.00
68226;BME280;55045;49.410;11.030;2022-08-27T07:07:09;97899.56;;;17.74;100.00
68226;BME280;55045;49.410;11.030;2022-08-27T07:10:16;97903.69;;;17.99;100.00
68226;BME280;55045;49.410;11.030;2022-08-27T07:13:22;97903.59;;;17.67;100.00
68226;BME280;55045;49.410;11.030;2022-08-27T07:16:26;97913.06;;;17.69;100.00
68226;BME280;55045;49.410;11.030;2022-08-27T07:19:31;97910.19;;;17.72;100.00
68226;BME280;55045;49.410;11.030;2022-08-27T07:22:42;97906.81;;;17.81;100.00
68226;BME280;55045;49.410;11.030;2022-08-27T07:25:47;97914.56;;;17.83;100.00
68226;BME280;55045;49.410;11.030;2022-08-27T07:28:53;97911.50;;;18.10;100.00
68226;BME280;55045;49.410;11.030;2022-08-27T07:31:56;97915.41;;;18.16;100.00
68226;BME280;55045;49.410;11.030;2022-08-27T07:34:59;97913.06;;;18.54;100.00
68226;BME280;55045;49.410;11.030;2022-08-27T07:38:04;97883.13;;;18.25;100.00
68226;BME280;55045;49.410;11.030;2022-08-27T07:41:11;97920.69;;;18.04;100.00
68226;BME280;55045;49.410;11.030;2022-08-27T07:44:15;97926.84;;;18.14;100.00
68226;BME280;55045;49.410;11.030;2022-08-27T07:47:30;97930.91;;;18.19;100.00
68226;BME280;55045;49.410;11.030;2022-08-27T07:50:33;97911.53;;;18.31;100.00
68226;BME280;55045;49.410;11.030;2022-08-27T07:53:37;97916.72;;;18.42;100.00
68226;BME280;55045;49.410;11.030;2022-08-27T07:56:41;97926.38;;;18.41;100.00
68226;BME280;55045;49.410;11.030;2022-08-27T07:59:57;97932.06;;;18.26;100.00
68226;BME280;55045;49.410;11.030;2022-08-27T08:03:00;97930.13;;;18.28;100.00
68226;BME280;55045;49.410;11.030;2022-08-27T08:06:05;97932.16;;;18.77;100.00
68226;BME280;55045;49.410;11.030;2022-08-27T08:09:10;97925.50;;;18.73;100.00
68226;BME280;55045;49.410;11.030;2022-08-27T08:12:14;97923.28;;;18.99;100.00
68226;BME280;55045;49.410;11.030;2022-08-27T08:15:27;97912.94;;;18.77;100.00
68226;BME280;55045;49.410;11.030;2022-08-27T08:18:30;97921.63;;;18.35;100.00
68226;BME280;55045;49.410;11.030;2022-08-27T08:21:34;97936.06;;;18.83;100.00
68226;BME280;55045;49.410;11.030;2022-08-27T08:24:37;97923.00;;;18.72;100.00
68226;BME280;55045;49.410;11.030;2022-08-27T08:27:43;97924.00;;;19.01;100.00
68226;BME280;55045;49.410;11.030;2022-08-27T08:30:49;97923.91;;;19.12;100.00
68226;BME280;55045;49.410;11.030;2022-08-27T08:33:56;97929.06;;;18.93;100.00
68226;BME280;55045;49.410;11.030;2022-08-27T08:36:59;97935.81;;;18.86;100.00
68226;BME280;55045;49.410;11.030;2022-08-27T08:40:04;97926.69;;;18.90;100.00
68226;BME280;55045;49.410;11.030;2022-08-27T08:43:20;97933.09;;;18.97;100.00
68226;BME280;55045;49.410;11.030;2022-08-27T08:46:30;97934.25;;;19.04;100.00
68226;BME280;55045;49.410;11.030;2022-08-27T08:49:45;97925.91;;;18.99;100.00
68226;BME280;55045;49.410;11.030;2022-08-27T08:52:55;97932.09;;;19.19;100.00
68226;BME280;55045;49.410;11.030;2022-08-27T08:56:05;97931.38;;;19.17;100.00
68226;BME280;55045;49.410;11.030;2022-08-27T08:59:23;97923.63;;;19.15;100.00
68226;BME280;55045;49.410;11.030;2022-08-27T09:02:28;97912.59;;;19.71;100.00
68226;BME280;55045;49.410;11.030;2022-08-27T09:05:31;97902.88;;;19.12;100.00
68226;BME280;55045;49.410;11.030;2022-08-27T09:08:37;97909.28;;;19.29;100.00
68226;BME280;55045;49.410;11.030;2022-08-27T09:11:47;97868.25;;;19.07;100.00
68226;BME280;55045;49.410;11.030;2022-08-27T09:14:56;97905.53;;;19.72;100.00
68226;BME280;55045;49.410;11.030;2022-08-27T09:18:04;97895.09;;;19.51;100.00
68226;BME280;55045;49.410;11.030;2022-08-27T09:21:22;97905.69;;;19.70;100.00
68226;BME280;55045;49.410;11.030;2022-08-27T09:24:36;97914.00;;;19.66;100.00
68226;BME280;55045;49.410;11.030;2022-08-27T09:27:46;97919.84;;;19.89;100.00
68226;BME280;55045;49.410;11.030;2022-08-27T09:34:26;97905.44;;;19.83;100.00
68226;BME280;55045;49.410;11.030;2022-08-27T09:37:31;97910.13;;;19.79;100.00
68226;BME280;55045;49.410;11.030;2022-08-27T09:40:39;97891.72;;;19.89;100.00
68226;BME280;55045;49.410;11.030;2022-08-27T09:43:43;97897.81;;;19.80;100.00
68226;BME280;55045;49.410;11.030;2022-08-27T09:46:52;97895.19;;;19.99;100.00
68226;BME280;55045;49.410;11.030;2022-08-27T09:50:02;97894.22;;;20.29;100.00
68226;BME280;55045;49.410;11.030;2022-08-27T09:53:16;97879.81;;;20.04;100.00
68226;BME280;55045;49.410;11.030;2022-08-27T09:56:25;97901.25;;;19.71;100.00
68226;BME280;55045;49.410;11.030;2022-08-27T09:59:33;97886.31;;;19.91;100.00
68226;BME280;55045;49.410;11.030;2022-08-27T10:02:48;97889.63;;;20.41;100.00
68226;BME280;55045;49.410;11.030;2022-08-27T10:05:53;97891.19;;;19.95;100.00
68226;BME280;55045;49.410;11.030;2022-08-27T10:09:00;97882.16;;;20.17;100.00
68226;BME280;55045;49.410;11.030;2022-08-27T10:12:12;97893.66;;;20.16;100.00
68226;BME280;55045;49.410;11.030;2022-08-27T10:15:19;97896.69;;;20.40;100.00
68226;BME280;55045;49.410;11.030;2022-08-27T10:18:26;97867.88;;;20.29;100.00
68226;BME280;55045;49.410;11.030;2022-08-27T10:21:47;97885.63;;;20.18;100.00
68226;BME280;55045;49.410;11.030;2022-08-27T10:25:02;97894.56;;;20.73;100.00
68226;BME280;55045;49.410;11.030;2022-08-27T10:28:22;97894.69;;;21.18;100.00
68226;BME280;55045;49.410;11.030;2022-08-27T10:31:31;97901.63;;;20.82;100.00
68226;BME280;55045;49.410;11.030;2022-08-27T10:34:48;97892.91;;;20.72;100.00
68226;BME280;55045;49.410;11.030;2022-08-27T10:38:06;97884.09;;;20.54;100.00
68226;BME280;55045;49.410;11.030;2022-08-27T10:41:16;97886.66;;;20.73;100.00
68226;BME280;55045;49.410;11.030;2022-08-27T10:44:37;97898.91;;;21.02;100.00
68226;BME280;55045;49.410;11.030;2022-08-27T10:47:59;97890.38;;;21.27;100.00
68226;BME280;55045;49.410;11.030;2022-08-27T10:51:11;97880.16;;;21.05;100.00
68226;BME280;55045;49.410;11.030;2022-08-27T10:54:25;97883.94;;;21.02;100.00
68226;BME280;55045;49.410;11.030;2022-08-27T10:57:49;97887.22;;;21.14;100.00
68226;BME280;55045;49.410;11.030;2022-08-27T11:01:12;97877.63;;;21.13;100.00
68226;BME280;55045;49.410;11.030;2022-08-27T11:04:21;97874.06;;;21.41;100.00
68226;BME280;55045;49.410;11.030;2022-08-27T11:07:29;97873.59;;;21.28;100.00
68226;BME280;55045;49.410;11.030;2022-08-27T11:10:38;97864.69;;;21.29;100.00
68226;BME280;55045;49.410;11.030;2022-08-27T11:13:46;97867.47;;;21.27;100.00
68226;BME280;55045;49.410;11.030;2022-08-27T11:16:56;97856.25;;;21.89;100.00
68226;BME280;55045;49.410;11.030;2022-08-27T11:20:09;97825.03;;;21.66;100.00
68226;BME280;55045;49.410;11.030;2022-08-27T11:23:16;97850.56;;;21.66;100.00
68226;BME280;55045;49.410;11.030;2022-08-27T11:26:22;97848.47;;;21.87;100.00
68226;BME280;55045;49.410;11.030;2022-08-27T11:29:30;97834.25;;;22.76;100.00
68226;BME280;55045;49.410;11.030;2022-08-27T11:32:47;97833.75;;;22.72;100.00
68226;BME280;55045;49.410;11.030;2022-08-27T11:36:07;97830.56;;;22.17;100.00
68226;BME280;55045;49.410;11.030;2022-08-27T11:39:20;97839.69;;;22.40;100.00
68226;BME280;55045;49.410;11.030;2022-08-27T11:42:35;97820.03;;;21.99;100.00
68226;BME280;55045;49.410;11.030;2022-08-27T11:45:53;97823.28;;;22.10;100.00
68226;BME280;55045;49.410;11.030;2022-08-27T11:48:59;97799.56;;;22.19;100.00
68226;BME280;55045;49.410;11.030;2022-08-27T11:52:05;97777.59;;;22.44;100.00
68226;BME280;55045;49.410;11.030;2022-08-27T11:55:21;97800.16;;;22.90;100.00
68226;BME280;55045;49.410;11.030;2022-08-27T11:58:28;97805.84;;;23.04;100.00
68226;BME280;55045;49.410;11.030;2022-08-27T12:01:55;97806.41;;;22.55;100.00
68226;BME280;55045;49.410;11.030;2022-08-27T12:05:08;97807.94;;;22.66;100.00
68226;BME280;55045;49.410;11.030;2022-08-27T12:08:16;97783.13;;;22.59;100.00
68226;BME280;55045;49.410;11.030;2022-08-27T12:11:32;97797.38;;;23.59;100.00
68226;BME280;55045;49.410;11.030;2022-08-27T12:14:45;97790.78;;;23.04;100.00
68226;BME280;55045;49.410;11.030;2022-08-27T12:17:58;97801.72;;;22.75;100.00
68226;BME280;55045;49.410;11.030;2022-08-27T12:21:14;97799.47;;;23.31;100.00
68226;BME280;55045;49.410;11.030;2022-08-27T12:24:37;97792.84;;;22.50;100.00
68226;BME280;55045;49.410;11.030;2022-08-27T12:27:55;97796.63;;;22.82;100.00
68226;BME280;55045;49.410;11.030;2022-08-27T12:31:00;97805.38;;;22.48;100.00
68226;BME280;55045;49.410;11.030;2022-08-27T12:34:13;97793.19;;;22.55;100.00
68226;BME280;55045;49.410;11.030;2022-08-27T12:37:25;97802.41;;;22.51;100.00
68226;BME280;55045;49.410;11.030;2022-08-27T12:40:37;97803.41;;;22.50;100.00
68226;BME280;55045;49.410;11.030;2022-08-27T12:43:41;97793.59;;;22.68;100.00
68226;BME280;55045;49.410;11.030;2022-08-27T12:46:48;97786.56;;;23.19;100.00
68226;BME280;55045;49.410;11.030;2022-08-27T12:49:54;97778.00;;;23.42;100.00
68226;BME280;55045;49.410;11.030;2022-08-27T12:53:19;97777.25;;;23.15;100.00
68226;BME280;55045;49.410;11.030;2022-08-27T12:56:36;97781.50;;;22.66;100.00
68226;BME280;55045;49.410;11.030;2022-08-27T12:59:51;97784.88;;;23.10;100.00
68226;BME280;55045;49.410;11.030;2022-08-27T13:03:18;97786.56;;;22.25;100.00
68226;BME280;55045;49.410;11.030;2022-08-27T13:06:26;97788.94;;;22.10;100.00
68226;BME280;55045;49.410;11.030;2022-08-27T13:09:32;97789.25;;;22.07;100.00
68226;BME280;55045;49.410;11.030;2022-08-27T13:12:35;97798.34;;;21.95;100.00
68226;BME280;55045;49.410;11.030;2022-08-27T13:15:41;97797.38;;;22.14;100.00
68226;BME280;55045;49.410;11.030;2022-08-27T13:18:48;97794.22;;;21.93;100.00
68226;BME280;55045;49.410;11.030;2022-08-27T13:21:52;97803.06;;;22.27;100.00
68226;BME280;55045;49.410;11.030;2022-08-27T13:24:57;97802.97;;;22.11;100.00
68226;BME280;55045;49.410;11.030;2022-08-27T13:28:06;97793.03;;;21.87;100.00
68226;BME280;55045;49.410;11.030;2022-08-27T13:31:11;97799.31;;;22.30;100.00
68226;BME280;55045;49.410;11.030;2022-08-27T13:34:19;97798.75;;;22.18;100.00
68226;BME280;55045;49.410;11.030;2022-08-27T13:37:26;97791.53;;;22.54;100.00
68226;BME280;55045;49.410;11.030;2022-08-27T13:40:33;97791.06;;;22.59;100.00
68226;BME280;55045;49.410;11.030;2022-08-27T13:43:39;97777.84;;;22.59;100.00
68226;BME280;55045;49.410;11.030;2022-08-27T13:46:46;97773.88;;;22.29;100.00
68226;BME280;55045;49.410;11.030;2022-08-27T13:50:00;97774.25;;;22.68;100.00
68226;BME280;55045;49.410;11.030;2022-08-27T13:53:07;97762.34;;;22.30;100.00
68226;BME280;55045;49.410;11.030;2022-08-27T13:56:31;97759.81;;;22.54;100.00
68226;BME280;55045;49.410;11.030;2022-08-27T13:59:36;97773.91;;;22.37;100.00
68226;BME280;55045;49.410;11.030;2022-08-27T14:02:44;97765.44;;;22.85;100.00
68226;BME280;55045;49.410;11.030;2022-08-27T14:05:59;97764.34;;;23.04;100.00
68226;BME280;55045;49.410;11.030;2022-08-27T14:09:14;97755.84;;;22.84;100.00
68226;BME280;55045;49.410;11.030;2022-08-27T14:12:27;97729.53;;;23.41;100.00
68226;BME280;55045;49.410;11.030;2022-08-27T14:15:36;97753.28;;;22.75;100.00
68226;BME280;55045;49.410;11.030;2022-08-27T14:18:50;97752.09;;;23.03;100.00
68226;BME280;55045;49.410;11.030;2022-08-27T14:22:04;97753.63;;;22.71;100.00
68226;BME280;55045;49.410;11.030;2022-08-27T14:25:09;97765.53;;;22.76;100.00
68226;BME280;55045;49.410;11.030;2022-08-27T14:28:13;97765.75;;;22.56;100.00
68226;BME280;55045;49.410;11.030;2022-08-27T14:31:16;97772.78;;;22.74;100.00
68226;BME280;55045;49.410;11.030;2022-08-27T14:34:19;97769.00;;;22.42;100.00
68226;BME280;55045;49.410;11.030;2022-08-27T14:37:24;97769.94;;;22.59;100.00
68226;BME280;55045;49.410;11.030;2022-08-27T14:40:28;97764.69;;;23.09;100.00
68226;BME280;55045;49.410;11.030;2022-08-27T14:43:34;97751.59;;;22.91;100.00
68226;BME280;55045;49.410;11.030;2022-08-27T14:46:38;97753.75;;;23.04;100.00
68226;BME280;55045;49.410;11.030;2022-08-27T14:49:45;97746.50;;;23.06;100.00
68226;BME280;55045;49.410;11.030;2022-08-27T14:52:50;97740.28;;;23.48;100.00
68226;BME280;55045;49.410;11.030;2022-08-27T14:55:54;97743.91;;;23.47;100.00
68226;BME280;55045;49.410;11.030;2022-08-27T14:59:00;97728.41;;;23.60;100.00
68226;BME280;55045;49.410;11.030;2022-08-27T15:02:06;97742.28;;;23.70;100.00
68226;BME280;55045;49.410;11.030;2022-08-27T15:05:10;97748.22;;;23.40;100.00
68226;BME280;55045;49.410;11.030;2022-08-27T15:08:15;97753.66;;;23.30;100.00
68226;BME280;55045;49.410;11.030;2022-08-27T15:11:21;97718.84;;;22.50;100.00
68226;BME280;55045;49.410;11.030;2022-08-27T15:14:27;97758.41;;;23.10;100.00
68226;BME280;55045;49.410;11.030;2022-08-27T15:17:32;97774.88;;;22.96;100.00
68226;BME280;55045;49.410;11.030;2022-08-27T15:20:36;97684.25;;;22.35;100.00
68226;BME280;55045;49.410;11.030;2022-08-27T15:26:46;97790.78;;;23.04;100.00
68226;BME280;55045;49.410;11.030;2022-08-27T15:29:51;97791.03;;;22.51;100.00
68226;BME280;55045;49.410;11.030;2022-08-27T15:34:24;97788.53;;;22.23;100.00
68226;BME280;55045;49.410;11.030;2022-08-27T15:37:27;97780.25;;;22.18;100.00
68226;BME280;55045;49.410;11.030;2022-08-27T15:40:33;97782.50;;;21.95;100.00
68226;BME280;55045;49.410;11.030;2022-08-27T15:43:37;97782.75;;;22.20;100.00
68226;BME280;55045;49.410;11.030;2022-08-27T15:46:41;97784.53;;;22.45;100.00
68226;BME280;55045;49.410;11.030;2022-08-27T15:49:46;97782.53;;;22.39;100.00
68226;BME280;55045;49.410;11.030;2022-08-27T15:52:53;97780.69;;;22.65;100.00
68226;BME280;55045;49.410;11.030;2022-08-27T15:55:58;97775.88;;;22.61;100.00
68226;BME280;55045;49.410;11.030;2022-08-27T15:59:04;97780.63;;;22.49;100.00
68226;BME280;55045;49.410;11.030;2022-08-27T16:02:12;97773.66;;;22.48;100.00
68226;BME280;55045;49.410;11.030;2022-08-27T16:05:20;97773.16;;;22.19;100.00
68226;BME280;55045;49.410;11.030;2022-08-27T16:08:28;97774.03;;;22.27;100.00
68226;BME280;55045;49.410;11.030;2022-08-27T16:11:34;97772.13;;;22.11;100.00
68226;BME280;55045;49.410;11.030;2022-08-27T16:14:38;97777.81;;;22.25;100.00
68226;BME280;55045;49.410;11.030;2022-08-27T16:17:41;97774.00;;;22.01;100.00